sensor_id;sensor_type;location;lat;lon;timestamp;P1;durP1;ratioP1;P2;durP2;ratioP2
4533;SDS011;2279;51.448;7.306;2022-09-13T00:01:01;3.37;;;3.17;;
4533;SDS011;2279;51.448;7.306;2022-09-13T00:03:27;3.43;;;3.10;;
4533;SDS011;2279;51.448;7.306;2022-09-13T00:05:53;3.43;;;3.23;;
4533;SDS011;2279;51.448;7.306;2022-09-13T00:08:19;3.90;;;3.60;;
4533;SDS011;2279;51.448;7.306;2022-09-13T00:10:45;3.13;;;2.80;;
4533;SDS011;2279;51.448;7.306;2022-09-13T00:13:12;3.20;;;2.90;;
4533;SDS011;2279;51.448;7.306;2022-09-13T00:15:46;3.23;;;3.03;;
4533;SDS011;2279;51.448;7.306;2022-09-13T00:18:12;3.33;;;3.10;;
4533;SDS011;2279;51.448;7.306;2022-09-13T00:20:38;3.17;;;2.90;;
4533;SDS011;2279;51.448;7.306;2022-09-13T00:23:04;3.60;;;3.30;;
4533;SDS011;2279;51.448;7.306;2022-09-13T00:25:30;3.67;;;3.43;;
4533;SDS011;2279;51.448;7.306;2022-09-13T00:27:56;3.20;;;3.00;;
4533;SDS011;2279;51.448;7.306;2022-09-13T00:30:22;3.10;;;2.90;;
4533;SDS011;2279;51.448;7.306;2022-09-13T00:32:48;3.10;;;2.90;;
4533;SDS011;2279;51.448;7.306;2022-09-13T00:35:14;3.17;;;2.97;;
4533;SDS011;2279;51.448;7.306;2022-09-13T00:37:40;3.70;;;3.00;;
4533;SDS011;2279;51.448;7.306;2022-09-13T00:40:06;3.10;;;2.90;;
4533;SDS011;2279;51.448;7.306;2022-09-13T00:42:32;3.47;;;3.17;;
4533;SDS011;2279;51.448;7.306;2022-09-13T00:44:59;3.60;;;3.30;;
4533;SDS011;2279;51.448;7.306;2022-09-13T00:50:13;3.23;;;3.03;;
4533;SDS011;2279;51.448;7.306;2022-09-13T00:52:42;3.10;;;2.80;;
4533;SDS011;2279;51.448;7.306;2022-09-13T00:55:11;2.93;;;2.83;;
4533;SDS011;2279;51.448;7.306;2022-09-13T00:57:38;3.53;;;3.30;;
4533;SDS011;2279;51.448;7.306;2022-09-13T01:02:37;3.57;;;2.90;;
4533;SDS011;2279;51.448;7.306;2022-09-13T01:05:03;8.27;;;3.20;;
4533;SDS011;2279;51.448;7.306;2022-09-13T01:07:29;3.87;;;2.97;;
4533;SDS011;2279;51.448;7.306;2022-09-13T01:09:55;3.40;;;2.97;;
4533;SDS011;2279;51.448;7.306;2022-09-13T01:12:24;4.10;;;2.90;;
4533;SDS011;2279;51.448;7.306;2022-09-13T01:14:55;3.13;;;2.93;;
4533;SDS011;2279;51.448;7.306;2022-09-13T01:17:22;4.07;;;3.07;;
4533;SDS011;2279;51.448;7.306;2022-09-13T01:19:48;3.30;;;3.10;;
4533;SDS011;2279;51.448;7.306;2022-09-13T01:27:43;2.87;;;2.67;;
4533;SDS011;2279;51.448;7.306;2022-09-13T01:30:22;3.90;;;3.10;;
4533;SDS011;2279;51.448;7.306;2022-09-13T01:38:23;3.53;;;3.33;;
4533;SDS011;2279;51.448;7.306;2022-09-13T01:41:04;5.07;;;3.20;;
4533;SDS011;2279;51.448;7.306;2022-09-13T01:46:04;3.70;;;3.40;;
4533;SDS011;2279;51.448;7.306;2022-09-13T01:48:51;6.20;;;3.90;;
4533;SDS011;2279;51.448;7.306;2022-09-13T01:56:48;4.30;;;3.90;;
4533;SDS011;2279;51.448;7.306;2022-09-13T01:59:33;6.57;;;6.03;;
4533;SDS011;2279;51.448;7.306;2022-09-13T02:02:10;3.93;;;3.63;;
4533;SDS011;2279;51.448;7.306;2022-09-13T02:04:39;4.53;;;3.80;;
4533;SDS011;2279;51.448;7.306;2022-09-13T02:07:16;6.27;;;5.63;;
4533;SDS011;2279;51.448;7.306;2022-09-13T02:09:45;3.70;;;3.40;;
4533;SDS011;2279;51.448;7.306;2022-09-13T02:12:14;3.77;;;3.47;;
4533;SDS011;2279;51.448;7.306;2022-09-13T02:14:42;6.17;;;4.40;;
4533;SDS011;2279;51.448;7.306;2022-09-13T02:17:10;4.80;;;4.23;;
4533;SDS011;2279;51.448;7.306;2022-09-13T02:19:39;4.27;;;3.80;;
4533;SDS011;2279;51.448;7.306;2022-09-13T02:22:06;3.57;;;3.37;;
4533;SDS011;2279;51.448;7.306;2022-09-13T02:24:37;3.73;;;3.43;;
4533;SDS011;2279;51.448;7.306;2022-09-13T02:27:06;4.13;;;3.20;;
4533;SDS011;2279;51.448;7.306;2022-09-13T02:29:35;3.90;;;3.50;;
4533;SDS011;2279;51.448;7.306;2022-09-13T02:34:34;3.03;;;2.83;;
4533;SDS011;2279;51.448;7.306;2022-09-13T02:37:01;3.33;;;3.13;;
4533;SDS011;2279;51.448;7.306;2022-09-13T02:39:28;4.63;;;4.13;;
4533;SDS011;2279;51.448;7.306;2022-09-13T02:44:39;10.43;;;3.47;;
4533;SDS011;2279;51.448;7.306;2022-09-13T02:52:27;5.80;;;5.23;;
4533;SDS011;2279;51.448;7.306;2022-09-13T02:57:32;3.40;;;2.93;;
4533;SDS011;2279;51.448;7.306;2022-09-13T03:00:03;3.13;;;2.47;;
4533;SDS011;2279;51.448;7.306;2022-09-13T03:02:32;3.30;;;3.00;;
4533;SDS011;2279;51.448;7.306;2022-09-13T03:05:02;3.33;;;3.07;;
4533;SDS011;2279;51.448;7.306;2022-09-13T03:07:28;5.30;;;2.30;;
4533;SDS011;2279;51.448;7.306;2022-09-13T03:09:56;3.03;;;2.83;;
4533;SDS011;2279;51.448;7.306;2022-09-13T03:14:54;3.60;;;3.03;;
4533;SDS011;2279;51.448;7.306;2022-09-13T03:17:28;3.40;;;3.10;;
4533;SDS011;2279;51.448;7.306;2022-09-13T03:20:02;3.57;;;3.30;;
4533;SDS011;2279;51.448;7.306;2022-09-13T03:28:03;3.70;;;3.40;;
4533;SDS011;2279;51.448;7.306;2022-09-13T03:30:34;6.10;;;3.40;;
4533;SDS011;2279;51.448;7.306;2022-09-13T03:33:04;2.77;;;2.47;;
4533;SDS011;2279;51.448;7.306;2022-09-13T03:35:36;3.30;;;3.00;;
4533;SDS011;2279;51.448;7.306;2022-09-13T03:38:07;3.60;;;3.10;;
4533;SDS011;2279;51.448;7.306;2022-09-13T03:43:24;3.73;;;3.20;;
4533;SDS011;2279;51.448;7.306;2022-09-13T03:45:55;3.03;;;2.77;;
4533;SDS011;2279;51.448;7.306;2022-09-13T03:48:22;3.53;;;3.27;;
4533;SDS011;2279;51.448;7.306;2022-09-13T03:50:49;4.53;;;3.60;;
4533;SDS011;2279;51.448;7.306;2022-09-13T03:53:20;3.00;;;2.80;;
4533;SDS011;2279;51.448;7.306;2022-09-13T03:55:47;3.63;;;2.90;;
4533;SDS011;2279;51.448;7.306;2022-09-13T03:58:14;4.27;;;2.70;;
4533;SDS011;2279;51.448;7.306;2022-09-13T04:00:41;4.23;;;2.50;;
4533;SDS011;2279;51.448;7.306;2022-09-13T04:03:08;3.73;;;3.43;;
4533;SDS011;2279;51.448;7.306;2022-09-13T04:05:34;3.50;;;3.10;;
4533;SDS011;2279;51.448;7.306;2022-09-13T04:08:01;3.43;;;3.23;;
4533;SDS011;2279;51.448;7.306;2022-09-13T04:10:29;2.90;;;2.70;;
4533;SDS011;2279;51.448;7.306;2022-09-13T04:12:55;3.07;;;2.73;;
4533;SDS011;2279;51.448;7.306;2022-09-13T04:15:21;3.40;;;3.10;;
4533;SDS011;2279;51.448;7.306;2022-09-13T04:17:48;3.40;;;3.20;;
4533;SDS011;2279;51.448;7.306;2022-09-13T04:20:14;3.80;;;3.20;;
4533;SDS011;2279;51.448;7.306;2022-09-13T04:22:40;7.20;;;3.13;;
4533;SDS011;2279;51.448;7.306;2022-09-13T04:25:06;3.90;;;3.60;;
4533;SDS011;2279;51.448;7.306;2022-09-13T04:27:33;3.57;;;3.33;;
4533;SDS011;2279;51.448;7.306;2022-09-13T04:29:59;4.10;;;3.10;;
4533;SDS011;2279;51.448;7.306;2022-09-13T04:32:26;3.17;;;2.87;;
4533;SDS011;2279;51.448;7.306;2022-09-13T04:34:52;3.47;;;3.17;;
4533;SDS011;2279;51.448;7.306;2022-09-13T04:37:18;4.00;;;3.70;;
4533;SDS011;2279;51.448;7.306;2022-09-13T04:39:45;3.93;;;3.63;;
4533;SDS011;2279;51.448;7.306;2022-09-13T04:42:11;6.10;;;3.37;;
4533;SDS011;2279;51.448;7.306;2022-09-13T04:44:37;3.33;;;3.03;;
4533;SDS011;2279;51.448;7.306;2022-09-13T04:47:03;4.47;;;4.07;;
4533;SDS011;2279;51.448;7.306;2022-09-13T04:49:29;4.87;;;3.80;;
4533;SDS011;2279;51.448;7.306;2022-09-13T04:51:55;6.60;;;3.10;;
4533;SDS011;2279;51.448;7.306;2022-09-13T04:54:21;4.20;;;3.73;;
4533;SDS011;2279;51.448;7.306;2022-09-13T04:56:47;4.70;;;4.17;;
4533;SDS011;2279;51.448;7.306;2022-09-13T04:59:13;4.00;;;3.70;;
4533;SDS011;2279;51.448;7.306;2022-09-13T05:01:40;3.87;;;3.53;;
4533;SDS011;2279;51.448;7.306;2022-09-13T05:04:07;3.80;;;3.50;;
4533;SDS011;2279;51.448;7.306;2022-09-13T05:06:33;3.57;;;3.00;;
4533;SDS011;2279;51.448;7.306;2022-09-13T05:08:59;4.70;;;4.00;;
4533;SDS011;2279;51.448;7.306;2022-09-13T05:11:26;4.83;;;3.90;;
4533;SDS011;2279;51.448;7.306;2022-09-13T05:13:54;6.07;;;3.37;;
4533;SDS011;2279;51.448;7.306;2022-09-13T05:16:24;3.53;;;3.23;;
4533;SDS011;2279;51.448;7.306;2022-09-13T05:18:50;4.67;;;3.47;;
4533;SDS011;2279;51.448;7.306;2022-09-13T05:21:17;3.57;;;3.27;;
4533;SDS011;2279;51.448;7.306;2022-09-13T05:23:43;3.90;;;3.50;;
4533;SDS011;2279;51.448;7.306;2022-09-13T05:26:09;5.13;;;3.23;;
4533;SDS011;2279;51.448;7.306;2022-09-13T05:28:35;3.23;;;3.03;;
4533;SDS011;2279;51.448;7.306;2022-09-13T05:31:03;3.30;;;3.00;;
4533;SDS011;2279;51.448;7.306;2022-09-13T05:33:30;3.73;;;3.43;;
4533;SDS011;2279;51.448;7.306;2022-09-13T05:35:56;3.93;;;3.53;;
4533;SDS011;2279;51.448;7.306;2022-09-13T05:38:23;4.20;;;3.60;;
4533;SDS011;2279;51.448;7.306;2022-09-13T05:43:41;5.70;;;3.93;;
4533;SDS011;2279;51.448;7.306;2022-09-13T05:46:09;4.73;;;3.87;;
4533;SDS011;2279;51.448;7.306;2022-09-13T05:48:36;4.47;;;4.07;;
4533;SDS011;2279;51.448;7.306;2022-09-13T05:53:31;4.17;;;3.60;;
4533;SDS011;2279;51.448;7.306;2022-09-13T05:55:57;4.40;;;3.97;;
4533;SDS011;2279;51.448;7.306;2022-09-13T05:58:23;6.03;;;4.00;;
4533;SDS011;2279;51.448;7.306;2022-09-13T06:00:53;5.43;;;4.50;;
4533;SDS011;2279;51.448;7.306;2022-09-13T06:03:20;4.60;;;3.80;;
4533;SDS011;2279;51.448;7.306;2022-09-13T06:05:46;5.73;;;4.33;;
4533;SDS011;2279;51.448;7.306;2022-09-13T06:08:12;5.63;;;3.73;;
4533;SDS011;2279;51.448;7.306;2022-09-13T06:10:38;3.40;;;3.10;;
4533;SDS011;2279;51.448;7.306;2022-09-13T06:13:04;5.73;;;3.17;;
4533;SDS011;2279;51.448;7.306;2022-09-13T06:15:30;5.53;;;3.77;;
4533;SDS011;2279;51.448;7.306;2022-09-13T06:17:56;7.60;;;4.10;;
4533;SDS011;2279;51.448;7.306;2022-09-13T06:20:22;7.23;;;3.57;;
4533;SDS011;2279;51.448;7.306;2022-09-13T06:22:48;4.10;;;3.70;;
4533;SDS011;2279;51.448;7.306;2022-09-13T06:25:15;3.50;;;3.30;;
4533;SDS011;2279;51.448;7.306;2022-09-13T06:27:41;6.07;;;3.80;;
4533;SDS011;2279;51.448;7.306;2022-09-13T06:30:07;3.80;;;3.50;;
4533;SDS011;2279;51.448;7.306;2022-09-13T06:32:33;5.07;;;3.43;;
4533;SDS011;2279;51.448;7.306;2022-09-13T06:34:59;3.27;;;2.97;;
4533;SDS011;2279;51.448;7.306;2022-09-13T06:37:25;4.50;;;3.77;;
4533;SDS011;2279;51.448;7.306;2022-09-13T06:39:52;4.17;;;3.53;;
4533;SDS011;2279;51.448;7.306;2022-09-13T06:42:18;3.40;;;3.10;;
4533;SDS011;2279;51.448;7.306;2022-09-13T06:44:44;3.47;;;3.27;;
4533;SDS011;2279;51.448;7.306;2022-09-13T06:47:12;4.40;;;4.00;;
4533;SDS011;2279;51.448;7.306;2022-09-13T06:49:38;3.53;;;3.23;;
4533;SDS011;2279;51.448;7.306;2022-09-13T06:52:04;3.90;;;3.30;;
4533;SDS011;2279;51.448;7.306;2022-09-13T06:54:30;3.80;;;3.50;;
4533;SDS011;2279;51.448;7.306;2022-09-13T06:56:56;4.30;;;3.40;;
4533;SDS011;2279;51.448;7.306;2022-09-13T06:59:22;6.07;;;4.50;;
4533;SDS011;2279;51.448;7.306;2022-09-13T07:01:48;4.63;;;3.90;;
4533;SDS011;2279;51.448;7.306;2022-09-13T07:04:14;4.53;;;3.37;;
4533;SDS011;2279;51.448;7.306;2022-09-13T07:06:42;5.27;;;3.53;;
4533;SDS011;2279;51.448;7.306;2022-09-13T07:09:13;3.27;;;2.90;;
4533;SDS011;2279;51.448;7.306;2022-09-13T07:11:41;6.03;;;3.67;;
4533;SDS011;2279;51.448;7.306;2022-09-13T07:14:07;3.63;;;3.20;;
4533;SDS011;2279;51.448;7.306;2022-09-13T07:16:34;4.40;;;3.53;;
4533;SDS011;2279;51.448;7.306;2022-09-13T07:19:01;7.23;;;3.30;;
4533;SDS011;2279;51.448;7.306;2022-09-13T07:21:31;3.70;;;3.37;;
4533;SDS011;2279;51.448;7.306;2022-09-13T07:23:58;3.70;;;3.40;;
4533;SDS011;2279;51.448;7.306;2022-09-13T07:26:25;4.63;;;3.00;;
4533;SDS011;2279;51.448;7.306;2022-09-13T07:28:56;3.60;;;3.30;;
4533;SDS011;2279;51.448;7.306;2022-09-13T07:31:23;6.43;;;3.77;;
4533;SDS011;2279;51.448;7.306;2022-09-13T07:33:53;4.20;;;3.10;;
4533;SDS011;2279;51.448;7.306;2022-09-13T07:36:20;3.87;;;3.30;;
4533;SDS011;2279;51.448;7.306;2022-09-13T07:38:46;3.80;;;3.40;;
4533;SDS011;2279;51.448;7.306;2022-09-13T07:41:15;4.90;;;3.07;;
4533;SDS011;2279;51.448;7.306;2022-09-13T07:43:42;5.10;;;3.40;;
4533;SDS011;2279;51.448;7.306;2022-09-13T07:46:12;3.90;;;3.13;;
4533;SDS011;2279;51.448;7.306;2022-09-13T07:48:39;3.30;;;3.00;;
4533;SDS011;2279;51.448;7.306;2022-09-13T07:51:12;3.93;;;3.63;;
4533;SDS011;2279;51.448;7.306;2022-09-13T07:53:39;3.67;;;3.00;;
4533;SDS011;2279;51.448;7.306;2022-09-13T07:56:09;3.57;;;2.83;;
4533;SDS011;2279;51.448;7.306;2022-09-13T07:58:36;3.03;;;2.83;;
4533;SDS011;2279;51.448;7.306;2022-09-13T08:01:24;3.63;;;3.07;;
4533;SDS011;2279;51.448;7.306;2022-09-13T08:03:55;3.40;;;2.93;;
4533;SDS011;2279;51.448;7.306;2022-09-13T08:06:22;5.00;;;3.37;;
4533;SDS011;2279;51.448;7.306;2022-09-13T08:08:48;3.47;;;2.90;;
4533;SDS011;2279;51.448;7.306;2022-09-13T08:11:16;4.63;;;2.80;;
4533;SDS011;2279;51.448;7.306;2022-09-13T08:13:43;3.53;;;3.00;;
4533;SDS011;2279;51.448;7.306;2022-09-13T08:16:09;6.80;;;2.80;;
4533;SDS011;2279;51.448;7.306;2022-09-13T08:18:35;2.67;;;2.50;;
4533;SDS011;2279;51.448;7.306;2022-09-13T08:21:01;3.37;;;3.00;;
4533;SDS011;2279;51.448;7.306;2022-09-13T08:23:27;4.60;;;2.87;;
4533;SDS011;2279;51.448;7.306;2022-09-13T08:25:53;4.17;;;2.53;;
4533;SDS011;2279;51.448;7.306;2022-09-13T08:28:20;3.50;;;2.87;;
4533;SDS011;2279;51.448;7.306;2022-09-13T08:30:46;2.93;;;2.60;;
4533;SDS011;2279;51.448;7.306;2022-09-13T08:33:13;3.10;;;2.80;;
4533;SDS011;2279;51.448;7.306;2022-09-13T08:35:39;5.37;;;3.17;;
4533;SDS011;2279;51.448;7.306;2022-09-13T08:38:05;2.57;;;2.37;;
4533;SDS011;2279;51.448;7.306;2022-09-13T08:40:32;3.93;;;2.70;;
4533;SDS011;2279;51.448;7.306;2022-09-13T08:43:05;4.33;;;3.17;;
4533;SDS011;2279;51.448;7.306;2022-09-13T08:45:31;4.40;;;3.80;;
4533;SDS011;2279;51.448;7.306;2022-09-13T08:47:59;2.90;;;2.20;;
4533;SDS011;2279;51.448;7.306;2022-09-13T08:50:27;3.07;;;2.47;;
4533;SDS011;2279;51.448;7.306;2022-09-13T09:00:42;3.40;;;2.50;;
4533;SDS011;2279;51.448;7.306;2022-09-13T09:05:55;4.80;;;2.30;;
4533;SDS011;2279;51.448;7.306;2022-09-13T09:08:27;3.37;;;2.67;;
4533;SDS011;2279;51.448;7.306;2022-09-13T09:10:55;3.70;;;3.30;;
4533;SDS011;2279;51.448;7.306;2022-09-13T09:13:34;3.60;;;2.30;;
4533;SDS011;2279;51.448;7.306;2022-09-13T09:18:32;2.70;;;2.20;;
4533;SDS011;2279;51.448;7.306;2022-09-13T09:21:00;2.93;;;2.73;;
4533;SDS011;2279;51.448;7.306;2022-09-13T09:23:40;7.30;;;3.30;;
4533;SDS011;2279;51.448;7.306;2022-09-13T09:26:18;3.87;;;3.40;;
4533;SDS011;2279;51.448;7.306;2022-09-13T09:36:55;4.63;;;3.00;;
4533;SDS011;2279;51.448;7.306;2022-09-13T09:39:26;3.60;;;3.30;;
4533;SDS011;2279;51.448;7.306;2022-09-13T09:41:56;3.87;;;3.27;;
4533;SDS011;2279;51.448;7.306;2022-09-13T09:44:24;6.83;;;3.03;;
4533;SDS011;2279;51.448;7.306;2022-09-13T09:46:56;5.10;;;3.00;;
4533;SDS011;2279;51.448;7.306;2022-09-13T09:52:09;6.53;;;3.53;;
4533;SDS011;2279;51.448;7.306;2022-09-13T09:54:35;4.17;;;2.93;;
4533;SDS011;2279;51.448;7.306;2022-09-13T09:57:03;3.00;;;2.80;;
4533;SDS011;2279;51.448;7.306;2022-09-13T09:59:32;4.07;;;3.30;;
4533;SDS011;2279;51.448;7.306;2022-09-13T10:02:01;7.10;;;3.10;;
4533;SDS011;2279;51.448;7.306;2022-09-13T10:04:38;6.93;;;3.20;;
4533;SDS011;2279;51.448;7.306;2022-09-13T10:07:09;5.47;;;3.20;;
4533;SDS011;2279;51.448;7.306;2022-09-13T10:09:36;3.20;;;2.83;;
4533;SDS011;2279;51.448;7.306;2022-09-13T10:12:03;5.90;;;3.30;;
4533;SDS011;2279;51.448;7.306;2022-09-13T10:14:42;5.90;;;3.10;;
4533;SDS011;2279;51.448;7.306;2022-09-13T10:17:15;4.53;;;3.07;;
4533;SDS011;2279;51.448;7.306;2022-09-13T10:20:01;2.73;;;2.53;;
4533;SDS011;2279;51.448;7.306;2022-09-13T10:22:28;2.80;;;2.43;;
4533;SDS011;2279;51.448;7.306;2022-09-13T10:24:54;3.07;;;2.47;;
4533;SDS011;2279;51.448;7.306;2022-09-13T10:27:23;4.13;;;3.70;;
4533;SDS011;2279;51.448;7.306;2022-09-13T10:29:51;4.23;;;2.73;;
4533;SDS011;2279;51.448;7.306;2022-09-13T10:32:19;3.07;;;2.70;;
4533;SDS011;2279;51.448;7.306;2022-09-13T10:34:45;4.43;;;2.70;;
4533;SDS011;2279;51.448;7.306;2022-09-13T10:40:15;3.73;;;2.60;;
4533;SDS011;2279;51.448;7.306;2022-09-13T10:42:33;4.47;;;3.00;;
4533;SDS011;2279;51.448;7.306;2022-09-13T10:45:06;4.73;;;2.60;;
4533;SDS011;2279;51.448;7.306;2022-09-13T10:50:21;3.60;;;3.10;;
4533;SDS011;2279;51.448;7.306;2022-09-13T10:52:49;4.60;;;2.50;;
4533;SDS011;2279;51.448;7.306;2022-09-13T11:00:11;3.70;;;2.97;;
4533;SDS011;2279;51.448;7.306;2022-09-13T11:08:00;4.03;;;2.53;;
4533;SDS011;2279;51.448;7.306;2022-09-13T11:18:19;3.73;;;2.80;;
4533;SDS011;2279;51.448;7.306;2022-09-13T11:20:49;3.00;;;2.60;;
4533;SDS011;2279;51.448;7.306;2022-09-13T11:31:37;4.77;;;2.87;;
4533;SDS011;2279;51.448;7.306;2022-09-13T11:42:31;3.37;;;2.47;;
4533;SDS011;2279;51.448;7.306;2022-09-13T11:44:42;4.27;;;2.93;;
4533;SDS011;2279;51.448;7.306;2022-09-13T11:55:46;3.80;;;3.00;;
4533;SDS011;2279;51.448;7.306;2022-09-13T11:58:22;4.20;;;2.33;;
4533;SDS011;2279;51.448;7.306;2022-09-13T12:00:54;3.37;;;2.60;;
4533;SDS011;2279;51.448;7.306;2022-09-13T12:03:23;4.63;;;3.43;;
4533;SDS011;2279;51.448;7.306;2022-09-13T12:05:51;3.90;;;3.10;;
4533;SDS011;2279;51.448;7.306;2022-09-13T12:08:21;2.60;;;2.40;;
4533;SDS011;2279;51.448;7.306;2022-09-13T12:13:31;5.57;;;2.33;;
4533;SDS011;2279;51.448;7.306;2022-09-13T12:16:04;3.80;;;3.03;;
4533;SDS011;2279;51.448;7.306;2022-09-13T12:18:33;3.40;;;2.90;;
4533;SDS011;2279;51.448;7.306;2022-09-13T12:21:05;6.00;;;2.87;;
4533;SDS011;2279;51.448;7.306;2022-09-13T12:23:49;4.90;;;2.90;;
4533;SDS011;2279;51.448;7.306;2022-09-13T12:26:21;3.13;;;2.30;;
4533;SDS011;2279;51.448;7.306;2022-09-13T12:28:53;5.10;;;2.90;;
4533;SDS011;2279;51.448;7.306;2022-09-13T12:31:28;3.53;;;2.40;;
4533;SDS011;2279;51.448;7.306;2022-09-13T12:33:54;3.40;;;2.60;;
4533;SDS011;2279;51.448;7.306;2022-09-13T12:39:11;5.90;;;3.07;;
4533;SDS011;2279;51.448;7.306;2022-09-13T12:44:21;6.93;;;3.50;;
4533;SDS011;2279;51.448;7.306;2022-09-13T12:49:47;4.70;;;2.83;;
4533;SDS011;2279;51.448;7.306;2022-09-13T13:00:09;4.10;;;3.00;;
4533;SDS011;2279;51.448;7.306;2022-09-13T13:02:41;5.83;;;3.07;;
4533;SDS011;2279;51.448;7.306;2022-09-13T13:07:51;7.43;;;3.80;;
4533;SDS011;2279;51.448;7.306;2022-09-13T13:10:29;7.50;;;3.40;;
4533;SDS011;2279;51.448;7.306;2022-09-13T13:12:57;5.60;;;4.23;;
4533;SDS011;2279;51.448;7.306;2022-09-13T13:18:19;4.93;;;3.07;;
4533;SDS011;2279;51.448;7.306;2022-09-13T13:23:18;3.70;;;3.20;;
4533;SDS011;2279;51.448;7.306;2022-09-13T13:26:04;4.47;;;2.80;;
4533;SDS011;2279;51.448;7.306;2022-09-13T13:31:10;4.40;;;3.70;;
4533;SDS011;2279;51.448;7.306;2022-09-13T13:33:59;3.30;;;2.67;;
4533;SDS011;2279;51.448;7.306;2022-09-13T13:36:30;10.97;;;3.30;;
4533;SDS011;2279;51.448;7.306;2022-09-13T13:39:00;6.30;;;4.80;;
4533;SDS011;2279;51.448;7.306;2022-09-13T13:46:49;5.40;;;3.57;;
4533;SDS011;2279;51.448;7.306;2022-09-13T13:59:49;6.63;;;3.57;;
4533;SDS011;2279;51.448;7.306;2022-09-13T14:02:18;4.50;;;4.10;;
4533;SDS011;2279;51.448;7.306;2022-09-13T14:04:50;6.03;;;3.80;;
4533;SDS011;2279;51.448;7.306;2022-09-13T14:15:06;4.07;;;3.70;;
4533;SDS011;2279;51.448;7.306;2022-09-13T14:20:11;9.60;;;4.20;;
4533;SDS011;2279;51.448;7.306;2022-09-13T14:22:38;3.97;;;3.63;;
4533;SDS011;2279;51.448;7.306;2022-09-13T14:27:49;18.83;;;4.60;;
4533;SDS011;2279;51.448;7.306;2022-09-13T14:30:22;8.97;;;4.30;;
4533;SDS011;2279;51.448;7.306;2022-09-13T14:32:51;4.40;;;3.47;;
4533;SDS011;2279;51.448;7.306;2022-09-13T14:35:26;5.10;;;4.40;;
4533;SDS011;2279;51.448;7.306;2022-09-13T14:37:52;6.40;;;4.80;;
4533;SDS011;2279;51.448;7.306;2022-09-13T14:40:23;13.07;;;9.10;;
4533;SDS011;2279;51.448;7.306;2022-09-13T14:42:50;6.47;;;4.33;;
4533;SDS011;2279;51.448;7.306;2022-09-13T14:45:26;10.63;;;7.47;;
4533;SDS011;2279;51.448;7.306;2022-09-13T14:47:59;8.03;;;5.33;;
4533;SDS011;2279;51.448;7.306;2022-09-13T14:50:33;8.20;;;4.90;;
4533;SDS011;2279;51.448;7.306;2022-09-13T14:53:02;5.17;;;4.77;;
4533;SDS011;2279;51.448;7.306;2022-09-13T14:55:34;5.13;;;4.70;;
4533;SDS011;2279;51.448;7.306;2022-09-13T14:58:02;10.73;;;6.43;;
4533;SDS011;2279;51.448;7.306;2022-09-13T15:00:33;8.50;;;5.10;;
4533;SDS011;2279;51.448;7.306;2022-09-13T15:03:01;5.83;;;5.10;;
4533;SDS011;2279;51.448;7.306;2022-09-13T15:05:30;6.17;;;5.53;;
4533;SDS011;2279;51.448;7.306;2022-09-13T15:07:56;6.83;;;5.00;;
4533;SDS011;2279;51.448;7.306;2022-09-13T15:10:23;8.20;;;5.57;;
4533;SDS011;2279;51.448;7.306;2022-09-13T15:15:33;12.60;;;6.40;;
4533;SDS011;2279;51.448;7.306;2022-09-13T15:20:29;8.63;;;5.03;;
4533;SDS011;2279;51.448;7.306;2022-09-13T15:25:49;9.07;;;5.00;;
4533;SDS011;2279;51.448;7.306;2022-09-13T15:28:19;5.93;;;5.00;;
4533;SDS011;2279;51.448;7.306;2022-09-13T15:30:45;5.90;;;4.97;;
4533;SDS011;2279;51.448;7.306;2022-09-13T15:35:38;5.40;;;4.80;;
4533;SDS011;2279;51.448;7.306;2022-09-13T15:38:16;7.60;;;4.60;;
4533;SDS011;2279;51.448;7.306;2022-09-13T15:40:44;9.53;;;5.50;;
4533;SDS011;2279;51.448;7.306;2022-09-13T15:43:10;4.60;;;4.20;;
4533;SDS011;2279;51.448;7.306;2022-09-13T15:45:36;6.90;;;4.83;;
4533;SDS011;2279;51.448;7.306;2022-09-13T15:48:02;4.97;;;4.43;;
4533;SDS011;2279;51.448;7.306;2022-09-13T15:50:28;5.17;;;4.23;;
4533;SDS011;2279;51.448;7.306;2022-09-13T15:52:59;5.77;;;5.10;;
4533;SDS011;2279;51.448;7.306;2022-09-13T15:55:25;5.10;;;4.63;;
4533;SDS011;2279;51.448;7.306;2022-09-13T15:57:52;10.50;;;4.43;;
4533;SDS011;2279;51.448;7.306;2022-09-13T16:00:21;6.53;;;4.73;;
4533;SDS011;2279;51.448;7.306;2022-09-13T16:02:48;5.70;;;4.70;;
4533;SDS011;2279;51.448;7.306;2022-09-13T16:05:14;6.40;;;4.37;;
4533;SDS011;2279;51.448;7.306;2022-09-13T16:07:40;6.20;;;4.60;;
4533;SDS011;2279;51.448;7.306;2022-09-13T16:10:10;7.13;;;4.30;;
4533;SDS011;2279;51.448;7.306;2022-09-13T16:12:37;7.40;;;4.87;;
4533;SDS011;2279;51.448;7.306;2022-09-13T16:15:03;4.73;;;4.30;;
4533;SDS011;2279;51.448;7.306;2022-09-13T16:17:29;4.53;;;4.13;;
4533;SDS011;2279;51.448;7.306;2022-09-13T16:19:55;4.93;;;4.43;;
4533;SDS011;2279;51.448;7.306;2022-09-13T16:22:21;5.27;;;4.63;;
4533;SDS011;2279;51.448;7.306;2022-09-13T16:24:47;4.07;;;3.77;;
4533;SDS011;2279;51.448;7.306;2022-09-13T16:27:14;5.27;;;4.80;;
4533;SDS011;2279;51.448;7.306;2022-09-13T16:29:40;6.43;;;4.60;;
4533;SDS011;2279;51.448;7.306;2022-09-13T16:32:06;4.60;;;4.30;;
4533;SDS011;2279;51.448;7.306;2022-09-13T16:34:32;5.03;;;4.07;;
4533;SDS011;2279;51.448;7.306;2022-09-13T16:36:58;7.93;;;4.20;;
4533;SDS011;2279;51.448;7.306;2022-09-13T16:39:25;6.03;;;4.53;;
4533;SDS011;2279;51.448;7.306;2022-09-13T16:41:51;4.70;;;4.00;;
4533;SDS011;2279;51.448;7.306;2022-09-13T16:44:17;4.90;;;4.50;;
4533;SDS011;2279;51.448;7.306;2022-09-13T16:46:43;6.13;;;4.33;;
4533;SDS011;2279;51.448;7.306;2022-09-13T16:49:09;5.33;;;3.77;;
4533;SDS011;2279;51.448;7.306;2022-09-13T16:51:35;4.73;;;4.33;;
4533;SDS011;2279;51.448;7.306;2022-09-13T16:54:02;12.50;;;4.50;;
4533;SDS011;2279;51.448;7.306;2022-09-13T16:56:28;4.57;;;4.17;;
4533;SDS011;2279;51.448;7.306;2022-09-13T16:58:54;7.40;;;4.30;;
4533;SDS011;2279;51.448;7.306;2022-09-13T17:01:22;5.83;;;4.40;;
4533;SDS011;2279;51.448;7.306;2022-09-13T17:03:48;4.50;;;4.10;;
4533;SDS011;2279;51.448;7.306;2022-09-13T17:06:15;6.10;;;4.53;;
4533;SDS011;2279;51.448;7.306;2022-09-13T17:08:44;5.70;;;4.40;;
4533;SDS011;2279;51.448;7.306;2022-09-13T17:11:11;7.73;;;4.30;;
4533;SDS011;2279;51.448;7.306;2022-09-13T17:13:38;4.83;;;4.27;;
4533;SDS011;2279;51.448;7.306;2022-09-13T17:16:04;4.60;;;4.20;;
4533;SDS011;2279;51.448;7.306;2022-09-13T17:18:31;7.77;;;4.23;;
4533;SDS011;2279;51.448;7.306;2022-09-13T17:20:58;4.63;;;4.23;;
4533;SDS011;2279;51.448;7.306;2022-09-13T17:23:24;5.07;;;4.40;;
4533;SDS011;2279;51.448;7.306;2022-09-13T17:25:50;15.93;;;4.27;;
4533;SDS011;2279;51.448;7.306;2022-09-13T17:28:17;5.43;;;4.13;;
4533;SDS011;2279;51.448;7.306;2022-09-13T17:30:44;6.33;;;4.50;;
4533;SDS011;2279;51.448;7.306;2022-09-13T17:33:10;4.87;;;4.37;;
4533;SDS011;2279;51.448;7.306;2022-09-13T17:35:36;6.77;;;5.23;;
4533;SDS011;2279;51.448;7.306;2022-09-13T17:38:03;6.80;;;6.00;;
4533;SDS011;2279;51.448;7.306;2022-09-13T17:40:29;9.50;;;4.53;;
4533;SDS011;2279;51.448;7.306;2022-09-13T17:42:55;5.60;;;5.00;;
4533;SDS011;2279;51.448;7.306;2022-09-13T17:45:22;5.33;;;4.93;;
4533;SDS011;2279;51.448;7.306;2022-09-13T17:47:50;10.00;;;5.60;;
4533;SDS011;2279;51.448;7.306;2022-09-13T17:50:16;5.83;;;4.50;;
4533;SDS011;2279;51.448;7.306;2022-09-13T17:52:42;8.50;;;5.20;;
4533;SDS011;2279;51.448;7.306;2022-09-13T17:55:08;6.30;;;5.40;;
4533;SDS011;2279;51.448;7.306;2022-09-13T17:57:36;5.93;;;5.33;;
4533;SDS011;2279;51.448;7.306;2022-09-13T18:00:03;5.90;;;5.40;;
4533;SDS011;2279;51.448;7.306;2022-09-13T18:02:29;5.30;;;4.80;;
4533;SDS011;2279;51.448;7.306;2022-09-13T18:04:55;5.23;;;4.73;;
4533;SDS011;2279;51.448;7.306;2022-09-13T18:07:21;6.87;;;5.03;;
4533;SDS011;2279;51.448;7.306;2022-09-13T18:09:47;7.40;;;5.23;;
4533;SDS011;2279;51.448;7.306;2022-09-13T18:12:13;5.87;;;5.37;;
4533;SDS011;2279;51.448;7.306;2022-09-13T18:14:39;7.63;;;5.43;;
4533;SDS011;2279;51.448;7.306;2022-09-13T18:17:05;11.13;;;5.33;;
4533;SDS011;2279;51.448;7.306;2022-09-13T18:19:37;5.13;;;4.50;;
4533;SDS011;2279;51.448;7.306;2022-09-13T18:22:03;6.80;;;4.90;;
4533;SDS011;2279;51.448;7.306;2022-09-13T18:24:29;7.13;;;5.20;;
4533;SDS011;2279;51.448;7.306;2022-09-13T18:26:57;9.97;;;5.17;;
4533;SDS011;2279;51.448;7.306;2022-09-13T18:29:23;5.90;;;5.37;;
4533;SDS011;2279;51.448;7.306;2022-09-13T18:31:49;8.43;;;5.17;;
4533;SDS011;2279;51.448;7.306;2022-09-13T18:34:15;8.90;;;5.80;;
4533;SDS011;2279;51.448;7.306;2022-09-13T18:36:41;7.30;;;5.60;;